This is the latest recevied weather packets stored in our database for station/object KM4CBK. If no packets are shown the sender has not sent any weather packets the latest 10 day(s).
| Time | Temp. | Humidity | Pressure | Rain* | Wind** | Luminosity | Snow |
|---|---|---|---|---|---|---|---|
| 1777591130 | 19.44° C | 84% | 1010.6 hPa | 0 mm | - | 31 W/m² | - |
| 1777590826 | 20° C | 81% | 1010.5 hPa | 0 mm | - | 50 W/m² | - |
| 1777590522 | 20.56° C | 80% | 1010.6 hPa | 0 mm | - | 38 W/m² | - |
| 1777590218 | 20.56° C | 74% | 1010.3 hPa | 0 mm | - | 33 W/m² | - |
| 1777589916 | 21.11° C | 79% | 1010.7 hPa | 0 mm | - | 45 W/m² | - |
| 1777589612 | 21.11° C | 81% | 1010.7 hPa | 0 mm | - | 72 W/m² | - |
| 1777589309 | 21.11° C | 80% | 1010.6 hPa | 0 mm | - | 59 W/m² | - |
| 1777589007 | 21.11° C | 75% | 1010.5 hPa | 0 mm | - | 73 W/m² | - |
| 1777588702 | 21.11° C | 74% | 1010.4 hPa | 0 mm | - | 82 W/m² | - |
| 1777588398 | 21.67° C | 75% | 1010.3 hPa | 0 mm | - | 76 W/m² | - |
| 1777588094 | 21.67° C | 72% | 1010.2 hPa | 0 mm | - | 73 W/m² | - |
| 1777587785 | 21.67° C | 73% | 1010.4 hPa | 0 mm | - | 99 W/m² | - |
| 1777587483 | 21.67° C | 74% | 1010.4 hPa | 0 mm | - | 104 W/m² | - |
| 1777587180 | 21.67° C | 75% | 1010.1 hPa | 0 mm | - | 81 W/m² | - |
| 1777586875 | 21.67° C | 74% | 1010.5 hPa | 0 mm | - | 87 W/m² | - |
| 1777586572 | 21.67° C | 75% | 1010.4 hPa | 0 mm | - | 105 W/m² | - |
| 1777586267 | 21.11° C | 75% | 1010.2 hPa | 0 mm | - | 93 W/m² | - |
| 1777585964 | 21.67° C | 75% | 1010.3 hPa | 0 mm | - | 86 W/m² | - |
| 1777585660 | 21.67° C | 72% | 1010.1 hPa | 0 mm | - | 65 W/m² | - |
| 1777585355 | 22.22° C | 70% | 1010.1 hPa | 0 mm | - | 159 W/m² | - |
| 1777585050 | 22.22° C | 72% | 1010.3 hPa | 0 mm | - | 203 W/m² | - |
| 1777584746 | 22.22° C | 70% | 1010.2 hPa | 0 mm | - | 155 W/m² | - |
| 1777584445 | 22.22° C | 73% | 1010.2 hPa | 0 mm | - | 160 W/m² | - |
| 1777584141 | 21.67° C | 73% | 1010.5 hPa | 0 mm | - | 161 W/m² | - |
| 1777583840 | 21.67° C | 72% | 1010.4 hPa | 0 mm | - | 138 W/m² | - |
* Rain latest hour (hover to see other rain measurements)
** Current wind speed in m/s (hover to see current wind gust speed)